createdAt,value
2022-11-04T00:00:46.500Z,10.46
2022-11-04T00:05:48.751Z,10.51
2022-11-04T00:10:57.634Z,10.59
2022-11-04T00:16:02.237Z,10.51
2022-11-04T00:21:03.687Z,10.38
2022-11-04T00:26:05.173Z,10.24
2022-11-04T00:31:08.448Z,10.25
2022-11-04T00:36:09.881Z,10.28
2022-11-04T00:41:11.305Z,10.37
2022-11-04T00:46:12.690Z,10.56
2022-11-04T00:56:20.788Z,10.56
2022-11-04T01:01:22.320Z,10.66
2022-11-04T01:06:26.221Z,10.64
2022-11-04T01:11:28.019Z,10.54
2022-11-04T01:16:29.879Z,10.45
2022-11-04T01:21:31.486Z,10.46
2022-11-04T01:26:32.929Z,10.40
2022-11-04T01:31:34.330Z,10.40
2022-11-04T01:36:35.805Z,10.35
2022-11-04T01:41:37.207Z,10.26
2022-11-04T01:46:49.571Z,10.22
2022-11-04T01:51:56.486Z,10.33
2022-11-04T01:57:00.576Z,10.32
2022-11-04T02:02:03.055Z,10.29
2022-11-04T02:07:07.814Z,10.33
2022-11-04T02:12:09.252Z,10.20
2022-11-04T02:17:19.644Z,10.16
2022-11-04T02:22:45.863Z,10.05
2022-11-04T02:28:05.583Z,10.14
2022-11-04T02:33:12.975Z,10.16
2022-11-04T02:38:32.399Z,10.23
2022-11-04T02:43:55.398Z,10.23
2022-11-04T02:49:35.073Z,10.26
2022-11-04T02:54:39.250Z,10.37
2022-11-04T02:59:57.357Z,10.45
2022-11-04T03:04:59.998Z,10.40
2022-11-04T03:10:06.778Z,10.40
2022-11-04T03:15:17.570Z,10.39
2022-11-04T03:20:24.947Z,10.36
2022-11-04T03:25:33.134Z,10.28
2022-11-04T03:30:41.179Z,10.27
2022-11-04T03:35:42.693Z,10.26
2022-11-04T03:40:44.224Z,10.26
2022-11-04T03:45:45.717Z,10.18
2022-11-04T03:50:48.522Z,10.08
2022-11-04T03:56:14.695Z,10.05
2022-11-04T04:01:41.316Z,9.94
2022-11-04T04:06:45.154Z,9.95
2022-11-04T04:12:25.040Z,10.02
2022-11-04T04:17:37.560Z,10.03
2022-11-04T04:22:47.685Z,9.95
2022-11-04T04:27:51.234Z,10.01
2022-11-04T04:33:05.556Z,10.05
2022-11-04T04:38:09.504Z,10.05
2022-11-04T04:43:16.115Z,10.09
2022-11-04T04:48:17.610Z,10.11
2022-11-04T04:53:19.064Z,10.11
2022-11-04T04:58:20.476Z,10.12
2022-11-04T05:03:21.866Z,10.05
2022-11-04T05:08:23.252Z,10.06
2022-11-04T05:13:24.617Z,10.12
2022-11-04T05:18:26.017Z,10.09
2022-11-04T05:23:27.400Z,9.99
2022-11-04T05:28:28.966Z,9.80
2022-11-04T05:33:30.585Z,9.75
2022-11-04T05:38:32.028Z,9.61
2022-11-04T05:43:34.142Z,9.68
2022-11-04T05:48:40.309Z,9.70
2022-11-04T05:53:42.421Z,9.62
2022-11-04T05:58:43.800Z,9.64
2022-11-04T06:03:45.191Z,9.60
2022-11-04T06:08:46.584Z,9.57
2022-11-04T06:13:48.712Z,9.57
2022-11-04T06:18:50.600Z,9.59
2022-11-04T06:23:54.003Z,9.50
2022-11-04T06:28:57.077Z,9.48
2022-11-04T06:33:58.469Z,9.41
2022-11-04T06:39:04.375Z,9.39
2022-11-04T06:44:06.464Z,9.32
2022-11-04T06:49:13.542Z,9.28
2022-11-04T06:54:16.304Z,9.37
2022-11-04T06:59:20.203Z,9.36
2022-11-04T07:04:21.600Z,9.42
2022-11-04T07:09:22.988Z,9.38
2022-11-04T07:14:24.507Z,9.36
2022-11-04T07:19:25.875Z,9.55
2022-11-04T07:24:27.251Z,9.52
2022-11-04T07:29:28.659Z,9.59
2022-11-04T07:34:30.089Z,9.78
2022-11-04T07:39:31.495Z,9.78
2022-11-04T07:44:32.917Z,9.68
2022-11-04T07:49:34.388Z,9.65
2022-11-04T07:54:35.844Z,9.81
2022-11-04T07:59:37.219Z,9.91
2022-11-04T08:04:38.712Z,10.06
2022-11-04T08:09:40.302Z,10.13
2022-11-04T08:14:41.841Z,10.16
2022-11-04T08:19:43.351Z,10.16
2022-11-04T08:24:44.766Z,10.16
2022-11-04T08:29:46.143Z,10.03
2022-11-04T08:34:47.513Z,10.10
2022-11-04T08:39:48.942Z,10.14
2022-11-04T08:44:53.260Z,10.21
2022-11-04T08:49:54.737Z,10.25
2022-11-04T08:54:57.404Z,10.25
2022-11-04T08:59:59.061Z,10.26
2022-11-04T09:05:00.489Z,10.49
2022-11-04T09:10:01.888Z,10.68
2022-11-04T09:15:04.652Z,10.87
2022-11-04T09:20:07.469Z,11.00
2022-11-04T09:25:09.224Z,11.13
2022-11-04T09:30:11.363Z,11.18
2022-11-04T09:35:12.751Z,11.23
2022-11-04T09:40:17.276Z,11.39
2022-11-04T09:45:27.919Z,11.51
2022-11-04T09:50:41.130Z,11.58
2022-11-04T09:55:49.143Z,11.59
2022-11-04T10:01:35.746Z,11.69
2022-11-04T10:06:55.765Z,11.71
2022-11-04T10:12:14.541Z,11.73
2022-11-04T10:17:41.780Z,11.79
2022-11-04T10:22:58.075Z,11.76
2022-11-04T10:27:59.825Z,11.77
2022-11-04T10:33:25.373Z,11.93
2022-11-04T10:38:36.391Z,12.07
2022-11-04T10:43:40.263Z,12.16
2022-11-04T10:48:54.340Z,12.20
2022-11-04T10:54:00.442Z,12.30
2022-11-04T10:59:20.220Z,12.48
2022-11-04T11:04:26.068Z,12.86
2022-11-04T11:09:30.697Z,13.57
2022-11-04T11:14:37.159Z,14.43
2022-11-04T11:19:54.524Z,14.77
2022-11-04T11:25:12.843Z,16.14
2022-11-04T11:30:46.249Z,16.32
2022-11-04T11:35:52.947Z,17.17
2022-11-04T11:41:29.728Z,21.32
2022-11-04T11:46:33.820Z,24.41
2022-11-04T11:51:38.538Z,26.46
2022-11-04T11:57:11.418Z,27.52
2022-11-04T12:02:28.554Z,27.07
2022-11-04T12:13:29.763Z,28.81
2022-11-04T12:18:31.384Z,25.53
2022-11-04T12:24:03.493Z,22.54
2022-11-04T12:29:32.617Z,20.17
2022-11-04T12:34:46.208Z,18.47
2022-11-04T12:40:02.894Z,17.46
2022-11-04T12:45:32.936Z,16.65
2022-11-04T12:50:42.592Z,16.14
2022-11-04T12:56:11.525Z,15.81
2022-11-04T13:01:23.391Z,15.62
2022-11-04T13:06:40.172Z,15.39
2022-11-04T13:12:13.592Z,15.06
2022-11-04T13:17:21.795Z,14.84
2022-11-04T13:22:27.368Z,14.68
2022-11-04T13:27:33.531Z,14.58
2022-11-04T13:33:01.752Z,14.63
2022-11-04T13:38:11.736Z,14.67
2022-11-04T13:43:58.758Z,14.75
2022-11-04T13:49:02.921Z,14.62
2022-11-04T13:54:06.406Z,14.41
2022-11-04T13:59:29.068Z,14.16
2022-11-04T14:04:31.637Z,14.02
2022-11-04T14:09:43.563Z,13.75
2022-11-04T14:14:51.923Z,13.67
2022-11-04T14:19:53.269Z,13.59
2022-11-04T14:25:00.425Z,13.59
2022-11-04T14:30:02.093Z,13.53
2022-11-04T14:35:06.624Z,13.40
2022-11-04T14:40:24.639Z,13.37
2022-11-04T14:45:33.433Z,13.46
2022-11-04T14:50:34.827Z,13.56
2022-11-04T14:55:36.248Z,13.63
2022-11-04T15:00:51.436Z,13.69
2022-11-04T15:05:58.219Z,13.74
2022-11-04T15:11:07.937Z,13.76
2022-11-04T15:16:24.411Z,13.59
2022-11-04T15:21:26.334Z,12.94
2022-11-04T15:26:31.474Z,12.66
2022-11-04T15:31:34.823Z,12.56
2022-11-04T15:36:39.393Z,12.49
2022-11-04T15:41:42.193Z,12.34
2022-11-04T15:47:18.730Z,12.17
2022-11-04T15:52:25.779Z,12.04
2022-11-04T15:57:40.170Z,11.89
2022-11-04T16:02:54.231Z,11.76
2022-11-04T16:08:14.969Z,11.70
2022-11-04T16:13:16.346Z,11.49
2022-11-04T16:18:25.507Z,11.35
2022-11-04T16:23:27.765Z,11.18
2022-11-04T16:28:31.711Z,11.08
2022-11-04T16:33:33.154Z,10.97
2022-11-04T16:38:34.543Z,10.89
2022-11-04T16:43:41.396Z,10.89
2022-11-04T16:48:42.856Z,10.82
2022-11-04T16:53:47.761Z,10.90
2022-11-04T16:58:49.207Z,10.80
2022-11-04T17:03:50.605Z,10.72
2022-11-04T17:08:52.027Z,10.72
2022-11-04T17:13:53.437Z,10.71
2022-11-04T17:18:54.830Z,10.70
2022-11-04T17:23:56.293Z,10.91
2022-11-04T17:28:57.682Z,10.90
2022-11-04T17:33:59.204Z,10.76
2022-11-04T17:39:00.734Z,10.69
2022-11-04T17:44:02.220Z,10.61
2022-11-04T17:49:12.550Z,10.47
2022-11-04T17:54:14.548Z,10.47
2022-11-04T17:59:16.704Z,10.40
2022-11-04T18:04:20.961Z,10.47
2022-11-04T18:09:22.356Z,10.35
2022-11-04T18:14:23.891Z,10.40
2022-11-04T18:19:26.511Z,10.42
2022-11-04T18:24:28.150Z,10.49
2022-11-04T18:29:29.591Z,10.49
2022-11-04T18:34:30.975Z,10.34
2022-11-04T18:39:32.373Z,10.30
2022-11-04T18:44:33.770Z,10.17
2022-11-04T18:49:35.215Z,10.14
2022-11-04T18:54:37.009Z,10.12
2022-11-04T18:59:38.557Z,10.02
2022-11-04T19:04:39.948Z,9.90
2022-11-04T19:09:48.945Z,9.91
2022-11-04T19:14:50.602Z,9.96
2022-11-04T19:19:51.976Z,9.98
2022-11-04T19:24:53.808Z,10.00
2022-11-04T19:29:55.228Z,9.99
2022-11-04T19:34:56.611Z,10.06
2022-11-04T19:39:58.004Z,10.09
2022-11-04T19:44:59.412Z,10.01
2022-11-04T19:50:00.829Z,9.97
2022-11-04T19:55:02.234Z,10.02
2022-11-04T20:00:04.504Z,9.99
2022-11-04T20:05:13.006Z,10.03
2022-11-04T20:10:14.386Z,10.02
2022-11-04T20:20:38.929Z,10.04
2022-11-04T20:25:40.371Z,9.90
2022-11-04T20:30:41.786Z,9.87
2022-11-04T20:35:43.161Z,9.89
2022-11-04T20:40:44.549Z,9.93
2022-11-04T20:45:52.069Z,9.93
2022-11-04T20:50:53.837Z,9.94
2022-11-04T20:55:55.228Z,9.94
2022-11-04T21:01:00.272Z,9.80
2022-11-04T21:06:01.801Z,9.84
2022-11-04T21:11:04.885Z,9.89
2022-11-04T21:16:06.566Z,9.91
2022-11-04T21:21:09.713Z,9.81
2022-11-04T21:26:17.042Z,9.82
2022-11-04T21:31:18.449Z,9.81
2022-11-04T21:36:20.727Z,9.77
2022-11-04T21:41:24.412Z,9.66
2022-11-04T21:46:27.399Z,9.74
2022-11-04T21:51:31.057Z,9.80
2022-11-04T21:56:32.487Z,9.75
2022-11-04T22:01:33.966Z,9.79
2022-11-04T22:06:35.949Z,9.56
2022-11-04T22:11:37.413Z,9.41
2022-11-04T22:16:39.476Z,9.46
2022-11-04T22:21:43.245Z,9.34
2022-11-04T22:26:44.655Z,9.38
2022-11-04T22:31:46.102Z,9.40
2022-11-04T22:36:47.509Z,9.43
2022-11-04T22:41:48.911Z,9.34
2022-11-04T22:46:50.312Z,9.26
2022-11-04T22:51:51.876Z,9.21
2022-11-04T22:56:53.258Z,9.11
2022-11-04T23:01:54.741Z,9.05
2022-11-04T23:06:56.281Z,9.17
2022-11-04T23:11:57.664Z,9.07
2022-11-04T23:17:00.000Z,9.07
2022-11-04T23:22:01.389Z,8.94
2022-11-04T23:27:02.912Z,8.97
2022-11-04T23:32:04.687Z,8.94
2022-11-04T23:37:06.269Z,8.89
2022-11-04T23:42:08.387Z,8.95
2022-11-04T23:47:09.832Z,8.93
2022-11-04T23:52:11.222Z,8.89
2022-11-04T23:57:14.697Z,8.82
